X  Fermer Données météorologiques d'aviation de Metar     EHRD Rotterdam The Hague Airport
Température
64°F Température
57°F Point de rosée
78% Humidité



Vent
5 MPH
8 KM/H
2 M/S
4 KTS



330°
NNO
Conditions actuelles

Plutôt nuageux Plutôt nuageux
Pression 1011.85 (hPa) - 29.88 (inHg)
Visibilité 6 (mile) - 9.7 (km)
Aéroport
Code de l'aéroport EHRD

Emplacement: Rotterdam The Hague Airport
Distance: 14 (mi)

Metar:
EHRD 211055Z AUTO 33004KT 290V020 9999 BKN039/// 18/14 Q1012 NOSIG

Temps: 21-06-2024 12:55 CEST